Time;durP1;ratioP1;P1;durP2;ratioP2;P2;SDS_P1;SDS_P2;PMS_P1;PMS_P2;Temp;Humidity;BMP_temperature;BMP_pressure;BME280_temperature;BME280_humidity;BME280_pressure;Samples;Min_cycle;Max_cycle;Signal;HPM_P1;HPM_P2
2023/09/05 00:01:56;;;;;;;8.07;4.00;;;12.50;1.00;;;;;;4984532;28;20044;-76
2023/09/05 00:04:21;;;;;;;8.30;5.03;;;12.50;1.00;;;;;;4985579;28;20046;-76
2023/09/05 00:06:47;;;;;;;6.75;4.60;;;12.40;1.00;;;;;;4986122;28;20048;-76
2023/09/05 00:09:14;;;;;;;6.95;5.18;;;12.40;1.00;;;;;;4980839;28;20045;-76
2023/09/05 00:11:40;;;;;;;8.38;5.38;;;12.40;1.00;;;;;;4990134;28;20575;-76
2023/09/05 00:14:06;;;;;;;9.27;5.35;;;12.40;1.00;;;;;;4996821;28;20074;-76
2023/09/05 00:16:32;;;;;;;9.85;5.32;;;12.40;1.00;;;;;;4997930;28;20045;-76
2023/09/05 00:18:57;;;;;;;9.48;5.60;;;12.40;1.00;;;;;;4980496;28;20512;-76
2023/09/05 00:21:23;;;;;;;8.13;5.72;;;12.50;1.00;;;;;;4981804;28;20457;-76
2023/09/05 00:23:49;;;;;;;8.85;5.93;;;12.50;1.00;;;;;;4983162;28;20042;-76
2023/09/05 00:26:15;;;;;;;12.10;5.20;;;12.70;1.00;;;;;;4971005;28;20431;-76
2023/09/05 00:28:44;;;;;;;10.15;5.60;;;12.60;1.00;;;;;;5003466;28;20105;-76
2023/09/05 00:31:14;;;;;;;8.32;5.40;;;12.50;1.00;;;;;;5003004;28;20074;-76
2023/09/05 00:33:39;;;;;;;9.57;6.00;;;12.50;1.00;;;;;;4985910;28;20049;-75
2023/09/05 00:36:05;;;;;;;9.32;6.20;;;12.50;1.00;;;;;;4989236;28;20408;-76
2023/09/05 00:38:33;;;;;;;7.13;5.65;;;12.50;1.00;;;;;;4987296;28;20069;-76
2023/09/05 00:41:00;;;;;;;9.73;6.03;;;12.50;1.00;;;;;;4979635;28;20637;-76
2023/09/05 00:43:26;;;;;;;9.57;6.35;;;12.50;1.00;;;;;;5000481;28;20034;-76
2023/09/05 00:45:56;;;;;;;11.63;6.30;;;12.50;1.00;;;;;;4987732;28;20065;-76
2023/09/05 00:48:27;;;;;;;8.35;5.60;;;12.40;1.00;;;;;;4999013;28;20086;-76
2023/09/05 00:50:56;;;;;;;9.07;6.43;;;12.40;1.00;;;;;;4971229;28;20054;-76
2023/09/05 00:53:26;;;;;;;9.73;5.88;;;12.40;1.00;;;;;;4986172;28;20077;-76
2023/09/05 00:55:53;;;;;;;10.63;6.68;;;12.40;1.00;;;;;;4969888;28;20042;-76
2023/09/05 00:58:19;;;;;;;7.65;5.63;;;12.40;1.00;;;;;;4986316;28;20070;-76
2023/09/05 01:00:45;;;;;;;10.25;5.90;;;12.30;1.00;;;;;;4985158;28;20077;-75
2023/09/05 01:03:10;;;;;;;11.68;6.95;;;12.30;1.00;;;;;;5001547;28;20082;-76
2023/09/05 01:05:39;;;;;;;8.65;6.18;;;12.20;1.00;;;;;;5000755;28;20053;-76
2023/09/05 01:08:25;;;;;;;10.05;6.78;;;12.20;3.10;;;;;;4986416;28;20124;-76
2023/09/05 01:11:08;;;;;;;9.15;6.25;;;12.20;4.60;;;;;;4998359;28;20074;-76
2023/09/05 01:13:36;;;;;;;9.32;6.28;;;12.20;4.80;;;;;;5003379;28;20092;-76
2023/09/05 01:16:02;;;;;;;8.85;6.22;;;12.10;6.80;;;;;;4986243;28;20104;-76
2023/09/05 01:18:33;;;;;;;10.95;6.40;;;12.10;5.40;;;;;;4970229;28;20520;-76
2023/09/05 01:20:59;;;;;;;9.68;5.97;;;12.10;8.30;;;;;;4975851;28;20054;-76
2023/09/05 01:23:31;;;;;;;11.25;6.28;;;12.10;10.90;;;;;;4974828;28;20461;-76
2023/09/05 01:25:59;;;;;;;8.90;5.88;;;12.10;12.10;;;;;;4971111;28;20121;-76
2023/09/05 01:28:26;;;;;;;8.32;5.90;;;12.10;13.40;;;;;;4986192;28;20041;-76
2023/09/05 01:30:53;;;;;;;9.90;6.30;;;12.10;15.30;;;;;;4970960;28;20065;-76
2023/09/05 01:33:18;;;;;;;11.00;6.78;;;12.00;15.10;;;;;;4986117;28;20053;-76
2023/09/05 01:35:44;;;;;;;9.57;6.45;;;12.00;19.00;;;;;;4988694;28;20141;-76
2023/09/05 01:38:10;;;;;;;10.02;6.40;;;12.00;25.20;;;;;;4986607;28;20035;-76
2023/09/05 01:40:36;;;;;;;8.98;6.05;;;12.00;25.10;;;;;;4989248;28;20038;-76
2023/09/05 01:43:02;;;;;;;9.43;6.85;;;12.00;23.30;;;;;;4988954;28;20044;-76
2023/09/05 01:45:27;;;;;;;8.70;5.90;;;12.00;23.80;;;;;;4973802;28;20538;-76
2023/09/05 01:47:53;;;;;;;8.70;5.85;;;12.00;31.20;;;;;;4980530;28;20421;-76
2023/09/05 01:50:21;;;;;;;9.43;5.97;;;12.00;38.40;;;;;;4987667;28;20068;-76
2023/09/05 01:52:47;;;;;;;8.30;6.18;;;12.00;34.60;;;;;;4984264;28;20038;-76
2023/09/05 01:55:13;;;;;;;7.93;5.35;;;11.90;31.00;;;;;;4997002;28;20423;-76
2023/09/05 01:57:38;;;;;;;10.35;6.95;;;11.90;30.40;;;;;;4982120;28;20426;-76
2023/09/05 02:00:04;;;;;;;11.10;6.22;;;11.90;33.30;;;;;;4985039;28;20073;-76
2023/09/05 02:02:30;;;;;;;8.48;5.75;;;11.90;37.80;;;;;;4970447;28;20050;-76
2023/09/05 02:04:55;;;;;;;8.88;6.22;;;11.80;41.00;;;;;;4982386;28;20038;-76
2023/09/05 02:07:21;;;;;;;10.50;6.00;;;11.80;41.90;;;;;;4985711;28;20192;-76
2023/09/05 02:09:47;;;;;;;7.85;5.40;;;11.80;43.10;;;;;;4966943;28;20185;-76
2023/09/05 02:12:12;;;;;;;9.18;5.70;;;11.80;44.40;;;;;;5002503;28;20070;-76
2023/09/05 02:14:38;;;;;;;8.32;5.88;;;11.70;46.40;;;;;;4984707;28;20034;-76
2023/09/05 02:17:04;;;;;;;11.13;5.72;;;11.70;51.20;;;;;;4998454;28;20045;-76
2023/09/05 02:19:29;;;;;;;9.00;6.05;;;11.70;53.40;;;;;;4995990;28;20034;-77
2023/09/05 02:21:55;;;;;;;9.95;6.20;;;11.70;54.40;;;;;;5001751;28;20056;-77
2023/09/05 02:24:21;;;;;;;9.75;6.80;;;11.70;60.00;;;;;;4979108;28;20038;-76
2023/09/05 02:26:47;;;;;;;9.63;5.72;;;11.80;65.40;;;;;;4965609;28;20136;-76
2023/09/05 02:29:12;;;;;;;12.55;7.10;;;11.80;69.20;;;;;;4959492;28;20042;-76
2023/09/05 02:31:38;;;;;;;8.45;5.72;;;11.70;73.00;;;;;;4984020;28;20054;-76
2023/09/05 02:34:04;;;;;;;8.60;5.95;;;11.70;73.50;;;;;;4982347;28;20510;-76
2023/09/05 02:36:30;;;;;;;11.65;6.53;;;11.70;72.60;;;;;;4970826;28;20046;-76
2023/09/05 02:38:58;;;;;;;10.50;6.35;;;11.70;73.80;;;;;;4983993;28;20472;-76
2023/09/05 02:41:24;;;;;;;10.20;6.35;;;11.70;75.80;;;;;;4969162;28;20074;-76
2023/09/05 02:43:49;;;;;;;10.48;6.88;;;11.70;79.20;;;;;;5001704;28;20117;-76
2023/09/05 02:46:15;;;;;;;10.00;6.93;;;11.70;81.10;;;;;;4987656;28;20126;-75
2023/09/05 02:48:42;;;;;;;11.27;6.43;;;11.70;80.80;;;;;;4970220;28;20046;-76
2023/09/05 02:51:12;;;;;;;9.40;6.78;;;11.70;81.90;;;;;;4971013;28;20038;-76
2023/09/05 02:53:38;;;;;;;10.90;7.10;;;11.70;83.20;;;;;;4985306;28;20069;-76
2023/09/05 02:56:04;;;;;;;9.60;6.97;;;11.70;83.80;;;;;;4982538;28;20035;-77
2023/09/05 02:58:31;;;;;;;10.18;6.68;;;11.70;90.30;;;;;;4982819;28;20127;-76
2023/09/05 03:01:11;;;;;;;11.55;6.85;;;11.70;90.80;;;;;;4985144;28;20038;-76
2023/09/05 03:03:37;;;;;;;9.27;6.18;;;11.70;90.30;;;;;;4967444;28;20042;-76
2023/09/05 03:06:16;;;;;;;10.73;7.00;;;11.70;91.10;;;;;;4988017;28;20038;-76
2023/09/05 03:08:45;;;;;;;10.45;7.00;;;11.70;91.60;;;;;;4980260;28;20049;-76
2023/09/05 03:11:13;;;;;;;9.88;6.65;;;11.60;92.70;;;;;;4983294;28;20126;-77
2023/09/05 03:13:39;;;;;;;9.77;6.45;;;11.70;93.90;;;;;;4981679;28;20057;-77
2023/09/05 03:16:05;;;;;;;9.05;6.32;;;11.70;93.90;;;;;;4985353;28;20121;-76
2023/09/05 03:18:30;;;;;;;9.93;6.55;;;11.60;94.30;;;;;;4996880;28;20065;-77
2023/09/05 03:20:56;;;;;;;11.38;6.70;;;11.60;94.10;;;;;;4984067;28;20113;-76
2023/09/05 03:23:23;;;;;;;9.80;6.45;;;11.60;94.20;;;;;;4983326;28;20591;-76
2023/09/05 03:25:48;;;;;;;11.25;7.00;;;11.50;94.10;;;;;;4969030;28;20031;-76
2023/09/05 03:28:14;;;;;;;10.00;6.50;;;11.50;95.30;;;;;;4983902;28;20042;-76
2023/09/05 03:30:40;;;;;;;8.38;6.07;;;11.40;96.10;;;;;;4985137;28;20571;-76
2023/09/05 03:33:06;;;;;;;11.90;6.88;;;11.50;96.90;;;;;;4968322;28;20444;-76
2023/09/05 03:35:33;;;;;;;11.73;7.22;;;11.40;98.70;;;;;;4983533;28;20038;-76
2023/09/05 03:37:58;;;;;;;11.68;6.68;;;11.50;99.90;;;;;;4964735;28;20034;-76
2023/09/05 03:40:24;;;;;;;10.40;6.88;;;11.50;99.90;;;;;;4962981;28;20054;-77
2023/09/05 03:42:50;;;;;;;10.85;6.65;;;11.40;99.90;;;;;;4970256;28;20034;-77
2023/09/05 03:45:16;;;;;;;9.38;6.60;;;11.50;99.90;;;;;;4983698;28;20046;-76
2023/09/05 03:47:41;;;;;;;9.88;6.57;;;11.50;99.90;;;;;;4970959;28;20049;-76
2023/09/05 03:50:07;;;;;;;11.35;6.45;;;11.50;99.90;;;;;;4983172;28;20436;-77
2023/09/05 03:52:33;;;;;;;12.80;7.55;;;11.50;99.90;;;;;;4983604;28;20038;-76
2023/09/05 03:54:59;;;;;;;10.10;6.90;;;11.50;99.90;;;;;;4984538;28;20043;-76
2023/09/05 03:57:24;;;;;;;10.32;6.60;;;11.40;99.90;;;;;;4981783;28;20126;-76
2023/09/05 03:59:50;;;;;;;11.35;6.95;;;11.40;99.90;;;;;;5002565;28;20034;-76
2023/09/05 04:02:16;;;;;;;9.60;6.25;;;11.40;99.90;;;;;;4986796;28;20546;-76
2023/09/05 04:04:41;;;;;;;9.55;6.43;;;11.40;99.90;;;;;;4993019;28;20057;-76
2023/09/05 04:07:08;;;;;;;13.05;6.90;;;11.30;99.90;;;;;;4984034;28;20042;-76
2023/09/05 04:09:33;;;;;;;8.68;6.35;;;11.30;99.90;;;;;;4992179;28;20530;-76
2023/09/05 04:11:59;;;;;;;9.73;6.45;;;11.30;99.90;;;;;;4976609;28;20026;-76
2023/09/05 04:14:24;;;;;;;11.32;7.32;;;11.30;99.90;;;;;;4968369;28;20569;-76
2023/09/05 04:16:50;;;;;;;9.60;6.07;;;11.20;99.90;;;;;;4972239;28;20054;-76
2023/09/05 04:19:16;;;;;;;10.30;6.53;;;11.20;99.90;;;;;;4986628;28;20038;-77
2023/09/05 04:21:41;;;;;;;12.57;6.88;;;11.30;99.90;;;;;;5004994;28;20740;-77
2023/09/05 04:24:07;;;;;;;9.90;6.75;;;11.20;99.90;;;;;;4993724;28;20510;-76
2023/09/05 04:26:37;;;;;;;10.10;6.53;;;11.20;99.90;;;;;;4970547;28;20035;-76
2023/09/05 04:29:04;;;;;;;8.10;5.90;;;11.30;99.90;;;;;;4990096;28;20039;-76
2023/09/05 04:31:30;;;;;;;10.65;5.90;;;11.30;99.90;;;;;;4988847;28;20101;-76
2023/09/05 04:33:56;;;;;;;8.88;5.15;;;11.30;99.90;;;;;;4995080;28;20046;-76
2023/09/05 04:36:22;;;;;;;10.18;5.85;;;11.20;99.90;;;;;;5000776;28;20038;-76
2023/09/05 04:38:50;;;;;;;8.85;5.60;;;11.20;99.90;;;;;;4989882;28;20035;-76
2023/09/05 04:41:15;;;;;;;7.88;5.60;;;11.20;99.90;;;;;;5002320;28;20070;-76
2023/09/05 04:43:41;;;;;;;12.70;6.78;;;11.20;99.90;;;;;;4982643;28;20077;-76
2023/09/05 04:46:09;;;;;;;9.18;6.22;;;11.20;99.90;;;;;;4993687;28;20046;-76
2023/09/05 04:48:35;;;;;;;10.82;6.50;;;11.10;99.90;;;;;;5001304;28;20057;-76
2023/09/05 04:51:02;;;;;;;9.02;6.15;;;11.10;99.90;;;;;;5001056;28;20042;-76
2023/09/05 04:53:31;;;;;;;9.52;6.22;;;11.10;99.90;;;;;;4980815;28;20042;-76
2023/09/05 04:56:00;;;;;;;9.80;6.15;;;11.10;99.90;;;;;;4987227;28;20042;-75
2023/09/05 04:58:29;;;;;;;11.60;6.97;;;11.10;99.90;;;;;;4971994;28;20046;-76
2023/09/05 05:01:02;;;;;;;11.65;7.43;;;11.10;99.90;;;;;;4984329;28;20034;-76
2023/09/05 05:03:36;;;;;;;12.07;7.75;;;11.10;99.90;;;;;;4970921;28;20073;-74
2023/09/05 05:06:02;;;;;;;12.02;7.07;;;11.10;99.90;;;;;;4989619;28;20121;-76
2023/09/05 05:08:28;;;;;;;11.80;7.70;;;11.20;99.90;;;;;;4992089;28;20167;-76
2023/09/05 05:10:54;;;;;;;13.45;7.63;;;11.20;99.90;;;;;;4998585;28;20053;-76
2023/09/05 05:13:20;;;;;;;12.50;8.18;;;11.30;99.90;;;;;;4990263;28;20500;-76
2023/09/05 05:15:47;;;;;;;11.35;7.53;;;11.40;99.90;;;;;;4988567;28;20030;-75
2023/09/05 05:18:15;;;;;;;12.75;7.57;;;11.40;99.90;;;;;;4979616;28;20034;-75
2023/09/05 05:20:41;;;;;;;12.15;7.25;;;11.40;99.90;;;;;;4983995;28;20112;-75
2023/09/05 05:23:07;;;;;;;12.80;8.45;;;11.50;99.90;;;;;;4972416;28;20073;-76
2023/09/05 05:25:32;;;;;;;17.02;8.90;;;11.50;99.90;;;;;;4984365;28;20050;-76
2023/09/05 05:27:58;;;;;;;14.75;8.88;;;11.60;99.90;;;;;;4980456;28;20045;-76
2023/09/05 05:30:24;;;;;;;18.65;9.63;;;11.70;99.90;;;;;;5001864;28;20061;-76
2023/09/05 05:32:50;;;;;;;14.32;8.65;;;11.80;99.90;;;;;;4976592;28;20042;-78
2023/09/05 05:35:15;;;;;;;15.77;9.32;;;12.00;99.90;;;;;;4981302;28;20038;-77
2023/09/05 05:37:41;;;;;;;15.60;9.55;;;12.00;99.90;;;;;;5001466;28;20034;-76
2023/09/05 05:40:07;;;;;;;13.88;8.40;;;12.00;99.90;;;;;;4991349;28;20089;-77
2023/09/05 05:42:33;;;;;;;13.10;9.77;;;12.10;99.90;;;;;;4981566;28;20041;-77
2023/09/05 05:44:59;;;;;;;17.00;9.50;;;12.20;99.90;;;;;;5002597;28;20034;-76
2023/09/05 05:47:24;;;;;;;14.85;9.93;;;12.30;99.90;;;;;;5001019;28;20042;-77
2023/09/05 05:49:50;;;;;;;12.93;8.60;;;12.50;99.90;;;;;;4980833;28;20034;-78
2023/09/05 05:52:17;;;;;;;14.93;9.32;;;12.60;99.90;;;;;;4978855;28;20034;-77
2023/09/05 05:54:42;;;;;;;15.32;9.02;;;12.90;99.90;;;;;;4990909;28;20038;-77
2023/09/05 05:57:08;;;;;;;13.07;8.07;;;13.10;99.90;;;;;;4978154;28;20594;-77
2023/09/05 05:59:34;;;;;;;12.27;8.07;;;13.30;99.90;;;;;;4999047;28;20412;-77
2023/09/05 06:02:00;;;;;;;11.52;7.88;;;13.40;99.90;;;;;;4996314;28;20088;-76
2023/09/05 06:04:25;;;;;;;15.00;7.75;;;13.70;99.90;;;;;;4983534;28;20041;-78
2023/09/05 06:06:51;;;;;;;11.80;7.72;;;13.80;99.90;;;;;;4971100;28;20484;-78
2023/09/05 06:09:20;;;;;;;8.98;7.10;;;14.00;99.90;;;;;;4967232;28;20133;-78
2023/09/05 06:11:46;;;;;;;9.95;6.55;;;14.10;99.90;;;;;;5002452;28;20039;-77
2023/09/05 06:14:14;;;;;;;12.27;6.97;;;14.30;99.90;;;;;;4999369;28;20116;-77
2023/09/05 06:16:40;;;;;;;8.65;6.00;;;14.40;99.90;;;;;;4985099;28;20044;-76
2023/09/05 06:19:08;;;;;;;9.48;6.28;;;14.60;99.90;;;;;;4976799;28;20027;-77
2023/09/05 06:21:34;;;;;;;9.40;6.47;;;14.70;99.90;;;;;;4995538;28;20210;-78
2023/09/05 06:23:59;;;;;;;7.57;5.75;;;14.80;99.90;;;;;;4997989;28;20045;-77
2023/09/05 06:26:25;;;;;;;6.90;5.55;;;14.80;99.90;;;;;;4995422;28;20034;-77
2023/09/05 06:28:51;;;;;;;7.95;6.05;;;14.80;99.90;;;;;;4991431;28;20400;-77
2023/09/05 06:31:17;;;;;;;9.93;6.75;;;14.80;99.90;;;;;;4983514;28;20050;-78
2023/09/05 06:33:42;;;;;;;11.88;6.95;;;14.80;99.90;;;;;;4984085;28;20047;-76
2023/09/05 06:36:11;;;;;;;7.93;6.47;;;14.80;99.90;;;;;;4968951;28;20030;-78
2023/09/05 06:38:36;;;;;;;8.75;6.20;;;14.80;99.90;;;;;;4984763;28;20097;-78
2023/09/05 06:41:07;;;;;;;10.40;6.80;;;14.90;99.90;;;;;;4982567;28;20042;-79
2023/09/05 06:43:32;;;;;;;11.05;6.80;;;15.00;99.90;;;;;;4975488;28;20048;-77
2023/09/05 06:46:03;;;;;;;8.40;6.35;;;15.00;99.90;;;;;;4974320;28;20034;-77
2023/09/05 06:48:29;;;;;;;7.82;6.43;;;15.10;99.90;;;;;;4983933;28;20038;-78
2023/09/05 06:50:59;;;;;;;9.55;6.30;;;15.10;99.90;;;;;;4976686;28;20042;-77
2023/09/05 06:53:28;;;;;;;8.98;5.95;;;15.20;99.90;;;;;;4996064;28;20516;-77
2023/09/05 06:55:53;;;;;;;9.68;6.22;;;15.20;99.90;;;;;;4984358;28;20058;-77
2023/09/05 06:58:22;;;;;;;8.13;6.30;;;15.20;99.90;;;;;;4982150;28;20070;-75
2023/09/05 07:00:53;;;;;;;11.73;6.47;;;15.30;99.90;;;;;;4965449;28;20034;-76
2023/09/05 07:03:19;;;;;;;8.93;6.28;;;15.30;99.90;;;;;;4985588;28;20045;-77
2023/09/05 07:05:45;;;;;;;7.50;5.90;;;15.30;99.90;;;;;;4967148;28;20168;-77
2023/09/05 07:08:11;;;;;;;11.75;6.53;;;15.40;99.90;;;;;;4999353;28;20122;-77
2023/09/05 07:10:37;;;;;;;8.00;5.85;;;15.40;99.90;;;;;;4981884;28;20088;-77
2023/09/05 07:13:02;;;;;;;9.07;6.03;;;15.50;99.90;;;;;;4981418;28;20090;-77
2023/09/05 07:15:28;;;;;;;6.88;5.40;;;15.60;99.90;;;;;;4982131;28;20125;-77
2023/09/05 07:17:54;;;;;;;8.70;5.55;;;15.60;99.90;;;;;;4982229;28;20034;-78
2023/09/05 07:20:19;;;;;;;7.13;4.85;;;15.70;96.80;;;;;;4981537;28;20038;-79
2023/09/05 07:22:45;;;;;;;8.10;4.40;;;15.90;92.70;;;;;;4980323;28;20038;-78
2023/09/05 07:25:11;;;;;;;6.97;4.70;;;16.00;84.40;;;;;;4983302;28;20089;-78
2023/09/05 07:27:36;;;;;;;8.02;4.85;;;16.10;61.30;;;;;;4976330;28;20038;-78
2023/09/05 07:30:02;;;;;;;6.20;4.20;;;16.20;37.30;;;;;;4980404;28;20117;-79
2023/09/05 07:32:28;;;;;;;6.45;4.72;;;16.20;22.50;;;;;;4987304;28;20046;-79
2023/09/05 07:34:54;;;;;;;7.35;4.78;;;16.40;6.70;;;;;;4984378;28;20042;-78
2023/09/05 07:37:20;;;;;;;6.32;4.30;;;16.40;1.00;;;;;;4986042;28;20043;-78
2023/09/05 07:39:50;;;;;;;7.90;4.35;;;16.50;1.00;;;;;;5003081;28;20031;-79
2023/09/05 07:42:16;;;;;;;6.15;3.78;;;16.60;1.00;;;;;;4988520;28;20144;-78
2023/09/05 07:44:42;;;;;;;6.43;4.40;;;16.70;1.00;;;;;;4999881;28;20526;-78
2023/09/05 07:47:07;;;;;;;10.07;5.53;;;16.70;1.00;;;;;;4988908;28;20046;-80
2023/09/05 07:49:37;;;;;;;5.90;3.70;;;16.90;1.00;;;;;;4986392;28;20045;-78
2023/09/05 07:52:04;;;;;;;4.75;3.50;;;17.00;1.00;;;;;;4984909;28;20551;-78
2023/09/05 07:54:30;;;;;;;4.15;3.38;;;17.10;1.00;;;;;;4988815;28;20521;-78
2023/09/05 07:56:55;;;;;;;4.45;3.35;;;17.30;1.00;;;;;;4985762;28;20031;-79
2023/09/05 07:59:23;;;;;;;5.07;3.00;;;17.30;1.00;;;;;;4989288;28;20041;-78
2023/09/05 08:01:48;;;;;;;6.57;3.88;;;17.40;1.00;;;;;;4970868;28;20034;-78
2023/09/05 08:04:14;;;;;;;4.88;3.80;;;17.60;1.00;;;;;;4985078;28;20042;-79
2023/09/05 08:06:40;;;;;;;4.80;3.53;;;17.70;1.00;;;;;;5001232;28;20078;-78
2023/09/05 08:09:05;;;;;;;5.13;3.58;;;17.80;1.00;;;;;;4985902;28;20048;-79
2023/09/05 08:11:31;;;;;;;4.47;3.28;;;17.90;1.00;;;;;;4988365;28;20908;-78
2023/09/05 08:13:57;;;;;;;3.10;2.65;;;18.00;1.00;;;;;;4985091;28;20046;-79
2023/09/05 08:16:22;;;;;;;4.68;3.20;;;18.10;1.00;;;;;;4988466;28;20226;-78
2023/09/05 08:18:48;;;;;;;4.78;3.13;;;18.20;99.90;;;;;;4984157;28;20144;-78
2023/09/05 08:21:14;;;;;;;4.28;3.10;;;18.40;99.90;;;;;;4999564;28;20543;-79
2023/09/05 08:23:43;;;;;;;6.20;2.70;;;18.50;99.90;;;;;;5002817;28;20046;-79
2023/09/05 08:26:10;;;;;;;6.80;2.75;;;18.70;99.90;;;;;;4975265;28;20405;-78
2023/09/05 08:28:42;;;;;;;4.93;2.67;;;18.80;99.90;;;;;;4981994;28;20042;-76
2023/09/05 08:31:08;;;;;;;4.15;1.90;;;18.80;99.90;;;;;;4997768;28;20145;-79
2023/09/05 08:33:34;;;;;;;3.00;1.98;;;19.00;99.90;;;;;;4969500;28;20485;-79
2023/09/05 08:36:00;;;;;;;3.63;2.60;;;19.20;99.90;;;;;;4982470;28;20117;-78
2023/09/05 08:38:25;;;;;;;4.05;2.47;;;19.30;99.90;;;;;;4999039;28;20116;-78
2023/09/05 08:40:51;;;;;;;3.75;2.55;;;19.40;99.90;;;;;;4986177;28;21193;-75
2023/09/05 08:43:17;;;;;;;6.47;2.70;;;19.40;99.90;;;;;;5000193;28;20038;-75
2023/09/05 08:45:49;;;;;;;4.22;2.28;;;19.40;99.90;;;;;;4982068;28;20038;-75
2023/09/05 08:48:15;;;;;;;3.58;2.65;;;19.60;56.40;;;;;;4971781;28;20118;-75
2023/09/05 08:50:42;;;;;;;8.02;2.63;;;19.70;5.40;;;;;;4985263;28;20117;-75
2023/09/05 08:53:18;;;;;;;3.38;2.10;;;19.70;1.00;;;;;;5010726;28;20419;-75
2023/09/05 08:55:50;;;;;;;3.17;2.28;;;20.00;1.00;;;;;;4982162;28;20049;-75
2023/09/05 08:58:17;;;;;;;5.53;2.10;;;20.20;1.00;;;;;;4971249;28;20041;-76
2023/09/05 09:00:44;;;;;;;2.90;1.83;;;20.40;1.00;;;;;;4971555;28;20440;-75
2023/09/05 09:03:09;;;;;;;5.18;2.22;;;20.50;1.00;;;;;;4992266;28;20170;-75
2023/09/05 09:05:36;;;;;;;5.32;2.53;;;20.80;99.90;;;;;;4981417;28;20046;-75
2023/09/05 09:08:03;;;;;;;3.00;1.60;;;20.90;99.90;;;;;;5003531;28;20424;-75
2023/09/05 09:10:29;;;;;;;5.10;1.90;;;21.00;99.90;;;;;;4985983;28;20050;-75
2023/09/05 09:13:12;;;;;;;3.75;1.58;;;21.20;99.90;;;;;;4995851;28;20042;-75
2023/09/05 09:15:42;;;;;;;3.25;1.60;;;21.30;99.90;;;;;;4969136;28;20089;-75
2023/09/05 09:18:19;;;;;;;2.42;1.65;;;21.50;99.90;;;;;;4998322;28;20049;-74
2023/09/05 09:20:47;;;;;;;2.65;1.63;;;21.70;99.90;;;;;;4979963;28;20374;-75
2023/09/05 09:23:23;;;;;;;3.25;1.48;;;22.00;99.90;;;;;;4984403;28;20117;-75
2023/09/05 09:25:49;;;;;;;3.30;1.27;;;22.40;99.90;;;;;;4979971;28;20043;-75
2023/09/05 09:28:29;;;;;;;2.17;1.52;;;22.70;99.90;;;;;;4983325;28;20038;-74
2023/09/05 09:31:03;;;;;;;6.22;1.55;;;23.20;99.90;;;;;;4985570;28;20053;-75
2023/09/05 09:33:31;;;;;;;1.67;1.30;;;23.70;91.00;;;;;;4980614;28;20046;-75
2023/09/05 09:36:00;;;;;;;2.30;1.63;;;25.30;19.20;;;;;;4984628;28;20369;-75
2023/09/05 09:38:26;;;;;;;4.85;1.80;;;27.10;1.00;;;;;;4982857;28;20038;-74
2023/09/05 09:40:52;;;;;;;2.70;1.70;;;28.70;1.00;;;;;;4985560;28;20088;-76
2023/09/05 09:43:34;;;;;;;3.97;1.85;;;29.90;1.00;;;;;;4985535;28;20489;-75
2023/09/05 09:46:08;;;;;;;5.72;1.80;;;30.90;1.00;;;;;;5000478;28;20056;-77
2023/09/05 09:48:38;;;;;;;5.50;1.83;;;31.90;1.00;;;;;;4998242;28;20595;-73
2023/09/05 09:51:06;;;;;;;2.78;1.30;;;32.80;1.00;;;;;;4968021;28;20044;-74
2023/09/05 09:53:38;;;;;;;1.88;1.30;;;33.40;1.00;;;;;;4984262;28;20896;-74
2023/09/05 09:56:13;;;;;;;2.95;1.65;;;34.00;1.00;;;;;;4969921;28;20046;-75
2023/09/05 09:58:40;;;;;;;2.22;1.55;;;34.60;1.00;;;;;;4979773;28;20042;-74
2023/09/05 10:01:11;;;;;;;2.25;1.42;;;35.00;1.00;;;;;;4966718;28;20066;-75
2023/09/05 10:03:38;;;;;;;3.30;1.50;;;35.40;1.00;;;;;;4963101;28;20485;-74
2023/09/05 10:06:06;;;;;;;1.60;1.10;;;35.80;1.00;;;;;;4974492;28;20404;-76
2023/09/05 10:08:33;;;;;;;1.92;1.40;;;36.10;1.00;;;;;;4969979;28;20571;-75
2023/09/05 10:10:59;;;;;;;1.85;1.42;;;36.40;1.00;;;;;;4996607;28;20026;-75
2023/09/05 10:13:27;;;;;;;1.80;1.30;;;36.80;1.00;;;;;;5001239;28;20038;-75
2023/09/05 10:15:56;;;;;;;1.60;1.30;;;37.10;1.00;;;;;;4982585;28;20214;-75
2023/09/05 10:18:23;;;;;;;4.15;1.40;;;37.40;1.00;;;;;;4981648;28;20050;-75
2023/09/05 10:20:52;;;;;;;3.65;1.13;;;37.70;1.00;;;;;;4986185;28;20101;-74
2023/09/05 10:23:23;;;;;;;2.03;0.95;;;38.00;1.00;;;;;;4985393;28;20041;-75
2023/09/05 10:25:50;;;;;;;1.05;0.95;;;38.40;1.00;;;;;;4994316;28;20049;-74
2023/09/05 10:28:16;;;;;;;1.58;0.93;;;38.70;1.00;;;;;;4983074;28;20049;-74
2023/09/05 10:30:46;;;;;;;2.78;1.08;;;39.00;1.00;;;;;;4988765;28;20054;-73
2023/09/05 10:33:13;;;;;;;1.15;0.80;;;39.20;1.00;;;;;;4982601;28;20127;-74
2023/09/05 10:35:45;;;;;;;2.65;0.90;;;39.50;1.00;;;;;;4982896;28;20034;-74
2023/09/05 10:38:13;;;;;;;1.30;0.95;;;39.60;1.00;;;;;;4983504;28;20560;-74
2023/09/05 10:40:40;;;;;;;2.20;0.95;;;39.90;1.00;;;;;;4982672;28;20046;-73
2023/09/05 10:43:14;;;;;;;1.05;0.88;;;40.20;1.00;;;;;;4982933;28;20034;-73
2023/09/05 10:45:40;;;;;;;0.95;0.80;;;40.50;1.00;;;;;;4980118;28;20046;-74
2023/09/05 10:48:12;;;;;;;1.17;0.80;;;40.60;1.00;;;;;;4983302;28;20045;-73
2023/09/05 10:51:10;;;;;;;1.38;0.95;;;40.80;1.00;;;;;;4997660;28;20046;-73
2023/09/05 10:53:40;;;;;;;1.25;0.80;;;40.90;1.00;;;;;;5005838;28;20054;-74
2023/09/05 10:56:43;;;;;;;1.55;0.70;;;41.10;1.00;;;;;;4984687;28;20379;-74
2023/09/05 10:59:26;;;;;;;3.58;0.80;;;41.10;1.00;;;;;;4984485;28;20046;-73
2023/09/05 11:01:56;;;;;;;1.77;0.77;;;41.10;1.00;;;;;;5000983;28;20030;-73
2023/09/05 11:04:27;;;;;;;1.08;0.80;;;41.20;1.00;;;;;;4984276;28;20077;-73
2023/09/05 11:07:09;;;;;;;1.63;0.63;;;41.40;1.00;;;;;;4980502;28;20072;-74
2023/09/05 11:09:49;;;;;;;3.08;0.90;;;41.60;1.00;;;;;;4980531;28;20648;-74
2023/09/05 11:12:16;;;;;;;0.90;0.70;;;41.70;1.00;;;;;;4978668;28;20045;-73
2023/09/05 11:14:42;;;;;;;1.30;0.77;;;41.70;1.00;;;;;;4989481;28;20050;-73
2023/09/05 11:17:16;;;;;;;1.02;0.70;;;41.80;1.00;;;;;;4982657;28;20383;-73
2023/09/05 11:19:45;;;;;;;1.98;0.85;;;41.80;1.00;;;;;;4971139;28;20038;-73
2023/09/05 11:22:15;;;;;;;1.15;0.88;;;42.00;1.00;;;;;;5000192;28;20070;-74
2023/09/05 11:24:50;;;;;;;2.65;0.88;;;42.20;1.00;;;;;;4982742;28;20180;-73
2023/09/05 11:27:20;;;;;;;0.95;0.80;;;42.50;1.00;;;;;;4984001;28;20098;-74
2023/09/05 11:29:46;;;;;;;2.15;0.73;;;42.60;1.00;;;;;;4983388;28;20046;-73
2023/09/05 11:32:14;;;;;;;3.47;0.90;;;42.90;1.00;;;;;;4968875;28;20587;-74
2023/09/05 11:34:45;;;;;;;1.00;0.80;;;43.20;1.00;;;;;;4984352;28;20506;-73
2023/09/05 11:37:19;;;;;;;1.10;0.95;;;43.40;1.00;;;;;;4984122;28;20045;-74
2023/09/05 11:39:49;;;;;;;1.10;0.75;;;43.50;1.00;;;;;;4999767;28;20050;-73
2023/09/05 11:42:23;;;;;;;1.75;0.77;;;43.50;1.00;;;;;;4983827;28;20038;-73
2023/09/05 11:44:49;;;;;;;1.43;0.80;;;43.60;1.00;;;;;;4966612;28;20049;-74
2023/09/05 11:47:15;;;;;;;1.42;0.70;;;43.80;1.00;;;;;;4982928;28;20376;-73
2023/09/05 11:49:42;;;;;;;2.28;0.60;;;44.00;1.00;;;;;;4995570;28;20129;-74
2023/09/05 11:52:09;;;;;;;1.17;0.60;;;44.20;1.00;;;;;;5001263;28;20125;-74
2023/09/05 11:54:35;;;;;;;1.02;0.65;;;44.30;1.00;;;;;;4995300;28;20736;-74
2023/09/05 11:57:02;;;;;;;0.95;0.60;;;44.50;1.00;;;;;;4980470;28;20078;-74
2023/09/05 11:59:29;;;;;;;0.80;0.60;;;44.50;1.00;;;;;;4981586;28;20077;-73
2023/09/05 12:01:55;;;;;;;1.55;0.57;;;44.60;1.00;;;;;;4985315;28;20117;-73
2023/09/05 12:04:22;;;;;;;2.72;0.82;;;44.80;1.00;;;;;;4985620;28;20125;-74
2023/09/05 12:06:52;;;;;;;1.92;0.50;;;45.10;1.00;;;;;;4968998;28;20046;-74
2023/09/05 12:09:20;;;;;;;1.63;0.60;;;45.00;1.00;;;;;;4983698;28;20049;-74
2023/09/05 12:11:46;;;;;;;2.28;1.00;;;44.70;1.00;;;;;;4982856;28;20544;-74
2023/09/05 12:14:12;;;;;;;0.70;0.60;;;44.50;1.00;;;;;;4975524;28;20133;-74
2023/09/05 12:16:44;;;;;;;1.38;0.90;;;44.40;1.00;;;;;;4998331;28;20069;-74
2023/09/05 12:19:09;;;;;;;4.13;0.70;;;44.40;1.00;;;;;;4971176;28;20138;-74
2023/09/05 12:21:54;;;;;;;1.10;0.60;;;44.60;1.00;;;;;;4983087;28;20105;-74
2023/09/05 12:24:22;;;;;;;0.60;0.50;;;44.70;1.00;;;;;;4982484;28;20042;-73
2023/09/05 12:26:49;;;;;;;0.90;0.60;;;44.80;1.00;;;;;;4986273;28;20120;-74
2023/09/05 12:29:21;;;;;;;0.73;0.40;;;44.80;1.00;;;;;;4987083;28;20046;-74
2023/09/05 12:31:48;;;;;;;0.90;0.70;;;44.90;1.00;;;;;;4981174;28;20141;-74
2023/09/05 12:34:13;;;;;;;1.83;0.63;;;45.00;1.00;;;;;;5000532;28;20039;-74
2023/09/05 12:36:39;;;;;;;1.00;0.77;;;45.00;1.00;;;;;;5003199;28;20081;-74
2023/09/05 12:39:05;;;;;;;2.58;0.70;;;45.00;1.00;;;;;;4984304;28;20034;-73
2023/09/05 12:41:31;;;;;;;1.52;0.60;;;44.80;1.00;;;;;;4987544;28;20042;-74
2023/09/05 12:43:58;;;;;;;1.20;0.68;;;44.80;1.00;;;;;;5002329;28;20105;-74
2023/09/05 12:46:24;;;;;;;1.90;0.57;;;44.90;1.00;;;;;;4971982;28;20555;-74
2023/09/05 12:48:54;;;;;;;2.35;0.77;;;45.20;1.00;;;;;;4982416;28;20069;-73
2023/09/05 12:51:20;;;;;;;0.77;0.52;;;45.30;1.00;;;;;;4967638;28;20113;-76